createdAt,value
2022-12-25T00:00:20.904Z,100296.63
2022-12-25T00:02:50.392Z,100292.19
2022-12-25T00:05:18.467Z,100282.28
2022-12-25T00:07:46.163Z,100286.25
2022-12-25T00:10:13.924Z,100289.09
2022-12-25T00:12:41.595Z,100293.44
2022-12-25T00:15:09.721Z,100289.28
2022-12-25T00:17:37.603Z,100288.00
2022-12-25T00:20:07.987Z,100273.91
2022-12-25T00:22:35.522Z,100287.28
2022-12-25T00:25:03.267Z,100292.66
2022-12-25T00:27:32.739Z,100298.75
2022-12-25T00:30:00.286Z,100308.31
2022-12-25T00:32:27.823Z,100300.19
2022-12-25T00:34:55.322Z,100297.44
2022-12-25T00:37:24.127Z,100296.25
2022-12-25T00:39:51.703Z,100307.97
2022-12-25T00:42:23.745Z,100312.47
2022-12-25T00:44:51.598Z,100314.72
2022-12-25T00:47:19.341Z,100314.59
2022-12-25T00:49:46.976Z,100325.06
2022-12-25T00:52:14.897Z,100316.16
2022-12-25T00:54:43.714Z,100329.66
2022-12-25T00:57:11.200Z,100331.22
2022-12-25T00:59:38.704Z,100340.31
2022-12-25T01:02:24.293Z,100343.56
2022-12-25T01:04:53.126Z,100347.00
2022-12-25T01:07:21.303Z,100337.31
2022-12-25T01:10:08.132Z,100332.09
2022-12-25T01:12:37.784Z,100340.63
2022-12-25T01:15:06.683Z,100350.13
2022-12-25T01:17:34.261Z,100353.78
2022-12-25T01:20:01.990Z,100359.69
2022-12-25T01:22:29.663Z,100359.34
2022-12-25T01:24:58.467Z,100364.00
2022-12-25T01:27:26.005Z,100372.22
2022-12-25T01:29:53.528Z,100373.53
2022-12-25T01:32:21.044Z,100356.19
2022-12-25T01:34:53.848Z,100360.44
2022-12-25T01:37:23.300Z,100351.56
2022-12-25T01:39:50.801Z,100343.72
2022-12-25T01:42:21.071Z,100342.53
2022-12-25T01:45:22.657Z,100351.44
2022-12-25T01:47:50.248Z,100352.88
2022-12-25T01:50:17.947Z,100353.84
2022-12-25T01:52:45.661Z,100363.16
2022-12-25T01:55:13.751Z,100367.44
2022-12-25T01:57:42.862Z,100361.31
2022-12-25T02:00:18.138Z,100361.91
2022-12-25T02:02:45.759Z,100352.91
2022-12-25T02:05:17.911Z,100362.66
2022-12-25T02:07:46.552Z,100360.56
2022-12-25T02:10:14.584Z,100351.47
2022-12-25T02:12:45.084Z,100336.75
2022-12-25T02:15:15.093Z,100344.63
2022-12-25T02:17:47.020Z,100349.00
2022-12-25T02:20:29.321Z,100352.19
2022-12-25T02:23:05.948Z,100350.16
2022-12-25T02:25:43.245Z,100342.03
2022-12-25T02:28:14.907Z,100327.97
2022-12-25T02:30:45.482Z,100339.41
2022-12-25T02:33:32.554Z,100335.28
2022-12-25T02:36:03.915Z,100334.19
2022-12-25T02:38:33.384Z,100335.81
2022-12-25T02:41:01.977Z,100352.25
2022-12-25T02:43:50.332Z,100345.88
2022-12-25T02:46:36.850Z,100355.81
2022-12-25T02:49:27.382Z,100352.31
2022-12-25T02:52:14.723Z,100342.91
2022-12-25T02:55:03.002Z,100344.38
2022-12-25T02:57:55.792Z,100342.59
2022-12-25T03:00:42.877Z,100350.50
2022-12-25T03:03:29.356Z,100362.06
2022-12-25T03:06:28.009Z,100358.97
2022-12-25T03:09:17.217Z,100356.91
2022-12-25T03:11:46.019Z,100364.56
2022-12-25T03:14:31.531Z,100366.03
2022-12-25T03:17:01.232Z,100360.22
2022-12-25T03:19:48.994Z,100355.69
2022-12-25T03:22:40.300Z,100357.28
2022-12-25T03:25:26.186Z,100352.25
2022-12-25T03:27:55.604Z,100360.84
2022-12-25T03:30:41.363Z,100364.81
2022-12-25T03:33:43.093Z,100363.41
2022-12-25T03:36:09.970Z,100360.38
2022-12-25T03:39:01.942Z,100359.06
2022-12-25T03:41:52.002Z,100352.81
2022-12-25T03:44:41.437Z,100350.91
2022-12-25T03:47:31.246Z,100347.66
2022-12-25T03:50:24.513Z,100360.16
2022-12-25T03:53:10.405Z,100358.94
2022-12-25T03:55:54.953Z,100358.78
2022-12-25T03:58:41.553Z,100358.63
2022-12-25T04:01:26.943Z,100368.88
2022-12-25T04:04:12.217Z,100372.44
2022-12-25T04:06:58.744Z,100363.97
2022-12-25T04:09:44.147Z,100368.28
2022-12-25T04:12:29.296Z,100359.91
2022-12-25T04:15:14.741Z,100357.19
2022-12-25T04:18:00.056Z,100362.22
2022-12-25T04:20:45.338Z,100369.03
2022-12-25T04:23:32.067Z,100370.44
2022-12-25T04:26:17.986Z,100362.69
2022-12-25T04:29:03.417Z,100360.22
2022-12-25T04:31:48.892Z,100354.56
2022-12-25T04:34:34.241Z,100347.63
2022-12-25T04:37:01.740Z,100345.28
2022-12-25T04:39:30.644Z,100351.00
2022-12-25T04:41:59.332Z,100347.38
2022-12-25T04:44:26.811Z,100352.03
2022-12-25T04:46:54.357Z,100355.28
2022-12-25T04:49:22.084Z,100350.13
2022-12-25T04:51:49.556Z,100348.69
2022-12-25T04:54:17.035Z,100340.25
2022-12-25T04:56:46.231Z,100339.22
2022-12-25T04:59:13.928Z,100330.47
2022-12-25T05:01:41.606Z,100321.44
2022-12-25T05:04:09.260Z,100326.72
2022-12-25T05:06:36.819Z,100314.66
2022-12-25T05:09:04.303Z,100321.41
2022-12-25T05:11:31.835Z,100322.66
2022-12-25T05:14:00.621Z,100299.16
2022-12-25T05:16:28.311Z,100309.47
2022-12-25T05:18:55.813Z,100305.25
2022-12-25T05:21:23.375Z,100300.94
2022-12-25T05:23:51.349Z,100300.94
2022-12-25T05:26:21.324Z,100307.13
2022-12-25T05:28:49.012Z,100310.47
2022-12-25T05:31:18.350Z,100310.25
2022-12-25T05:33:45.919Z,100320.91
2022-12-25T05:36:13.629Z,100328.13
2022-12-25T05:38:41.196Z,100310.75
2022-12-25T05:41:08.658Z,100318.81
2022-12-25T05:43:36.191Z,100316.28
2022-12-25T05:46:06.681Z,100315.88
2022-12-25T05:48:36.860Z,100318.06
2022-12-25T05:51:05.880Z,100316.06
2022-12-25T05:53:33.633Z,100325.56
2022-12-25T05:56:02.972Z,100321.06
2022-12-25T05:58:30.562Z,100323.69
2022-12-25T06:00:58.109Z,100325.94
2022-12-25T06:03:26.515Z,100328.47
2022-12-25T06:05:55.681Z,100323.66
2022-12-25T06:08:23.195Z,100337.06
2022-12-25T06:10:50.660Z,100328.38
2022-12-25T06:13:18.136Z,100326.19
2022-12-25T06:15:45.609Z,100324.88
2022-12-25T06:18:13.143Z,100324.56
2022-12-25T06:20:41.195Z,100327.06
2022-12-25T06:23:10.012Z,100321.69
2022-12-25T06:25:39.517Z,100335.31
2022-12-25T06:28:07.143Z,100329.41
2022-12-25T06:30:34.910Z,100318.22
2022-12-25T06:33:02.432Z,100315.22
2022-12-25T06:35:29.914Z,100308.13
2022-12-25T06:37:57.907Z,100315.22
2022-12-25T06:40:26.719Z,100309.00
2022-12-25T06:42:54.208Z,100296.81
2022-12-25T06:45:21.701Z,100305.97
2022-12-25T06:47:49.181Z,100309.94
2022-12-25T06:50:16.890Z,100305.66
2022-12-25T06:52:44.371Z,100316.19
2022-12-25T06:55:11.844Z,100314.34
2022-12-25T06:57:40.692Z,100317.75
2022-12-25T07:00:10.074Z,100313.59
2022-12-25T07:02:38.542Z,100315.03
2022-12-25T07:05:07.000Z,100313.94
2022-12-25T07:07:34.479Z,100315.19
2022-12-25T07:10:02.004Z,100306.59
2022-12-25T07:12:29.472Z,100301.78
2022-12-25T07:14:58.289Z,100302.47
2022-12-25T07:17:25.864Z,100294.34
2022-12-25T07:19:53.352Z,100288.19
2022-12-25T07:22:20.892Z,100284.69
2022-12-25T07:24:48.429Z,100290.03
2022-12-25T07:27:15.909Z,100296.53
2022-12-25T07:29:43.412Z,100297.72
2022-12-25T07:32:12.323Z,100307.56
2022-12-25T07:34:39.886Z,100301.81
2022-12-25T07:37:07.391Z,100278.81
2022-12-25T07:39:35.372Z,100273.44
2022-12-25T07:42:02.899Z,100276.19
2022-12-25T07:44:30.407Z,100275.50
2022-12-25T07:46:57.877Z,100271.28
2022-12-25T07:49:26.690Z,100273.19
2022-12-25T07:51:54.196Z,100269.94
2022-12-25T07:54:21.734Z,100275.13
2022-12-25T07:56:51.683Z,100271.31
2022-12-25T07:59:19.367Z,100263.31
2022-12-25T08:01:47.130Z,100272.91
2022-12-25T08:04:14.773Z,100273.28
2022-12-25T08:06:43.775Z,100273.25
2022-12-25T08:09:13.635Z,100272.34
2022-12-25T08:11:41.144Z,100270.28
2022-12-25T08:14:12.721Z,100269.34
2022-12-25T08:16:41.854Z,100270.19
2022-12-25T08:19:09.642Z,100275.53
2022-12-25T08:21:37.176Z,100265.75
2022-12-25T08:24:06.492Z,100270.22
2022-12-25T08:26:34.278Z,100271.03
2022-12-25T08:29:01.771Z,100268.28
2022-12-25T08:31:30.747Z,100252.50
2022-12-25T08:33:59.404Z,100249.78
2022-12-25T08:36:28.256Z,100243.75
2022-12-25T08:39:02.504Z,100227.19
2022-12-25T08:41:32.645Z,100221.00
2022-12-25T08:44:00.146Z,100214.00
2022-12-25T08:46:28.153Z,100214.06
2022-12-25T08:48:56.682Z,100199.13
2022-12-25T08:51:25.516Z,100207.94
2022-12-25T08:53:54.031Z,100209.81
2022-12-25T08:56:21.699Z,100219.59
2022-12-25T08:58:50.484Z,100222.25
2022-12-25T09:01:18.120Z,100233.75
2022-12-25T09:03:45.714Z,100239.94
2022-12-25T09:06:15.141Z,100240.81
2022-12-25T09:08:48.658Z,100242.56
2022-12-25T09:11:18.228Z,100230.22
2022-12-25T09:13:45.997Z,100239.03
2022-12-25T09:16:16.652Z,100229.31
2022-12-25T09:18:44.254Z,100223.13
2022-12-25T09:21:14.296Z,100231.09
2022-12-25T09:23:41.988Z,100235.47
2022-12-25T09:26:13.139Z,100233.63
2022-12-25T09:28:45.127Z,100238.88
2022-12-25T09:31:17.549Z,100235.28
2022-12-25T09:33:45.076Z,100237.81
2022-12-25T09:36:12.581Z,100230.72
2022-12-25T09:38:40.053Z,100232.50
2022-12-25T09:41:12.644Z,100226.25
2022-12-25T09:43:42.768Z,100223.59
2022-12-25T09:46:17.620Z,100218.22
2022-12-25T09:48:49.530Z,100223.56
2022-12-25T09:51:17.988Z,100217.22
2022-12-25T09:53:49.414Z,100215.22
2022-12-25T09:56:19.261Z,100222.25
2022-12-25T09:58:46.813Z,100221.28
2022-12-25T10:01:21.225Z,100214.94
2022-12-25T10:04:27.634Z,100224.63
2022-12-25T10:07:02.861Z,100221.84
2022-12-25T10:09:45.077Z,100220.97
2022-12-25T10:12:23.963Z,100228.75
2022-12-25T10:15:05.237Z,100226.91
2022-12-25T10:17:42.428Z,100218.19
2022-12-25T10:20:17.682Z,100204.72
2022-12-25T10:22:47.647Z,100211.81
2022-12-25T10:25:18.242Z,100204.63
2022-12-25T10:27:46.513Z,100199.09
2022-12-25T10:30:16.012Z,100199.31
2022-12-25T10:32:45.899Z,100196.66
2022-12-25T10:35:14.485Z,100186.84
2022-12-25T10:37:42.685Z,100171.88
2022-12-25T10:40:25.333Z,100171.97
2022-12-25T10:42:56.639Z,100167.50
2022-12-25T10:45:24.141Z,100158.59
2022-12-25T10:48:07.169Z,100156.88
2022-12-25T10:50:35.085Z,100144.41
2022-12-25T10:53:04.762Z,100148.94
2022-12-25T10:55:32.802Z,100136.44
2022-12-25T10:58:02.033Z,100128.47
2022-12-25T11:00:32.231Z,100101.56
2022-12-25T11:03:01.606Z,100095.41
2022-12-25T11:05:31.331Z,100081.19
2022-12-25T11:08:00.401Z,100069.22
2022-12-25T11:10:30.715Z,100076.19
2022-12-25T11:13:00.027Z,100081.59
2022-12-25T11:15:33.872Z,100069.16
2022-12-25T11:18:02.809Z,100072.41
2022-12-25T11:20:30.924Z,100083.47
2022-12-25T11:22:58.391Z,100085.34
2022-12-25T11:25:28.263Z,100092.25
2022-12-25T11:27:59.362Z,100116.09
2022-12-25T11:30:26.909Z,100115.69
2022-12-25T11:32:56.440Z,100116.53
2022-12-25T11:35:30.022Z,100107.88
2022-12-25T11:37:57.503Z,100100.19
2022-12-25T11:40:28.997Z,100109.44
2022-12-25T11:43:04.145Z,100100.56
2022-12-25T11:45:36.873Z,100103.66
2022-12-25T11:48:08.447Z,100100.81
2022-12-25T11:50:39.470Z,100096.16
2022-12-25T11:53:08.375Z,100095.13
2022-12-25T11:55:38.990Z,100085.31
2022-12-25T11:58:13.789Z,100082.56
2022-12-25T12:00:42.323Z,100082.56
2022-12-25T12:03:15.435Z,100084.66
2022-12-25T12:05:47.131Z,100079.97
2022-12-25T12:08:15.560Z,100084.50
2022-12-25T12:10:57.236Z,100084.13
2022-12-25T12:13:36.480Z,100090.34
2022-12-25T12:16:05.946Z,100081.97
2022-12-25T12:18:34.290Z,100082.88
2022-12-25T12:21:05.697Z,100088.03
2022-12-25T12:23:36.007Z,100083.53
2022-12-25T12:26:03.837Z,100082.38
2022-12-25T12:28:38.654Z,100066.91
2022-12-25T12:31:07.559Z,100066.91
2022-12-25T12:33:37.759Z,100052.16
2022-12-25T12:36:07.371Z,100044.66
2022-12-25T12:38:35.820Z,100032.41
2022-12-25T12:41:05.271Z,100012.16
2022-12-25T12:43:36.151Z,100006.78
2022-12-25T12:46:07.855Z,99999.75
2022-12-25T12:48:41.258Z,100001.38
2022-12-25T12:51:12.322Z,100007.06
2022-12-25T12:53:40.483Z,100006.78
2022-12-25T12:56:17.161Z,100006.84
2022-12-25T12:58:50.099Z,100011.84
2022-12-25T13:01:35.703Z,99998.94
2022-12-25T13:04:33.854Z,99990.75
2022-12-25T13:07:12.333Z,99993.56
2022-12-25T13:09:50.624Z,99994.25
2022-12-25T13:12:18.221Z,99984.63
2022-12-25T13:14:46.009Z,99984.66
2022-12-25T13:17:15.444Z,99978.94
2022-12-25T13:19:44.039Z,99968.09
2022-12-25T13:22:24.333Z,99976.72
2022-12-25T13:25:00.415Z,99976.63
2022-12-25T13:27:30.380Z,99973.31
2022-12-25T13:29:58.565Z,99969.66
2022-12-25T13:32:27.947Z,99978.06
2022-12-25T13:34:55.997Z,99972.09
2022-12-25T13:37:26.957Z,99964.06
2022-12-25T13:39:56.700Z,99948.31
2022-12-25T13:42:25.516Z,99950.16
2022-12-25T13:44:55.064Z,99949.50
2022-12-25T13:47:25.859Z,99949.63
2022-12-25T13:49:55.056Z,99950.47
2022-12-25T13:52:27.984Z,99951.47
2022-12-25T13:54:56.431Z,99958.63
2022-12-25T13:57:26.713Z,99962.13
2022-12-25T13:59:54.603Z,99967.16
2022-12-25T14:02:28.208Z,99962.88
2022-12-25T14:04:56.126Z,99953.22
2022-12-25T14:07:25.870Z,99955.88
2022-12-25T14:09:57.512Z,99957.63
2022-12-25T14:12:25.821Z,99961.16
2022-12-25T14:14:54.045Z,99948.94
2022-12-25T14:17:22.451Z,99943.63
2022-12-25T14:20:01.010Z,99945.31
2022-12-25T14:22:35.946Z,99945.44
2022-12-25T14:25:03.522Z,99937.56
2022-12-25T14:27:31.157Z,99935.78
2022-12-25T14:30:00.156Z,99932.22
2022-12-25T14:32:29.356Z,99911.84
2022-12-25T14:34:59.160Z,99905.56
2022-12-25T14:37:29.458Z,99899.44
2022-12-25T14:40:00.305Z,99904.34
2022-12-25T14:42:29.724Z,99901.22
2022-12-25T14:45:00.470Z,99886.03
2022-12-25T14:47:28.801Z,99889.88
2022-12-25T14:49:56.716Z,99866.44
2022-12-25T14:52:27.324Z,99855.84
2022-12-25T14:54:57.688Z,99864.13
2022-12-25T14:57:32.622Z,99868.75
2022-12-25T15:00:03.658Z,99873.44
2022-12-25T15:02:40.441Z,99863.16
2022-12-25T15:05:25.595Z,99853.66
2022-12-25T15:08:21.307Z,99838.00
2022-12-25T15:11:05.150Z,99824.53
2022-12-25T15:13:34.398Z,99821.00
2022-12-25T15:16:05.308Z,99807.69
2022-12-25T15:18:37.425Z,99795.25
2022-12-25T15:21:05.410Z,99787.72
2022-12-25T15:23:33.262Z,99790.91
2022-12-25T15:26:00.817Z,99790.44
2022-12-25T15:28:28.537Z,99808.06
2022-12-25T15:30:58.550Z,99802.78
2022-12-25T15:33:26.074Z,99802.13
2022-12-25T15:35:53.631Z,99796.41
2022-12-25T15:38:21.307Z,99791.78
2022-12-25T15:40:48.773Z,99798.91
2022-12-25T15:43:40.577Z,99798.78
2022-12-25T15:46:05.871Z,99803.25
2022-12-25T15:48:33.445Z,99800.66
2022-12-25T15:51:00.930Z,99793.50
2022-12-25T15:53:28.476Z,99790.94
2022-12-25T15:55:56.193Z,99796.00
2022-12-25T15:58:23.699Z,99786.38
2022-12-25T16:00:51.572Z,99775.78
2022-12-25T16:03:20.504Z,99775.66
2022-12-25T16:05:47.987Z,99769.38
2022-12-25T16:08:15.461Z,99772.91
2022-12-25T16:10:43.085Z,99778.25
2022-12-25T16:13:10.769Z,99762.41
2022-12-25T16:15:38.359Z,99764.25
2022-12-25T16:18:06.168Z,99754.41
2022-12-25T16:20:35.309Z,99756.25
2022-12-25T16:23:02.938Z,99753.59
2022-12-25T16:25:30.677Z,99746.47
2022-12-25T16:27:58.152Z,99741.97
2022-12-25T16:30:25.622Z,99750.72
2022-12-25T16:32:53.579Z,99744.66
2022-12-25T16:35:21.108Z,99748.16
2022-12-25T16:37:50.155Z,99745.59
2022-12-25T16:40:18.026Z,99743.81
2022-12-25T16:42:45.506Z,99728.91
2022-12-25T16:45:13.395Z,99724.28
2022-12-25T16:47:40.871Z,99722.63
2022-12-25T16:50:10.816Z,99723.41
2022-12-25T16:52:38.346Z,99732.94
2022-12-25T16:55:07.581Z,99736.44
2022-12-25T16:57:35.162Z,99730.44
2022-12-25T17:00:02.811Z,99723.41
2022-12-25T17:02:30.458Z,99718.88
2022-12-25T17:04:58.047Z,99723.25
2022-12-25T17:07:25.759Z,99717.09
2022-12-25T17:09:53.251Z,99705.44
2022-12-25T17:12:22.037Z,99696.97
2022-12-25T17:14:49.784Z,99690.31
2022-12-25T17:17:17.302Z,99699.88
2022-12-25T17:19:44.822Z,99701.09
2022-12-25T17:22:12.445Z,99695.25
2022-12-25T17:24:41.409Z,99674.16
2022-12-25T17:27:09.538Z,99679.28
2022-12-25T17:29:39.799Z,99678.19
2022-12-25T17:32:08.919Z,99673.78
2022-12-25T17:34:36.847Z,99681.94
2022-12-25T17:37:04.504Z,99677.53
2022-12-25T17:39:32.176Z,99673.50
2022-12-25T17:41:59.993Z,99686.72
2022-12-25T17:44:27.703Z,99691.94
2022-12-25T17:46:56.778Z,99686.03
2022-12-25T17:49:24.310Z,99679.38
2022-12-25T17:51:51.819Z,99666.81
2022-12-25T17:54:19.305Z,99665.41
2022-12-25T17:56:47.025Z,99653.13
2022-12-25T17:59:18.414Z,99646.31
2022-12-25T18:01:46.768Z,99644.22
2022-12-25T18:04:16.843Z,99636.03
2022-12-25T18:06:44.348Z,99638.66
2022-12-25T18:09:13.058Z,99642.44
2022-12-25T18:11:42.339Z,99651.63
2022-12-25T18:14:12.701Z,99651.97
2022-12-25T18:16:43.210Z,99643.75
2022-12-25T18:19:11.308Z,99630.09
2022-12-25T18:21:40.152Z,99642.94
2022-12-25T18:24:09.273Z,99624.63
2022-12-25T18:26:37.504Z,99620.75
2022-12-25T18:29:05.430Z,99626.69
2022-12-25T18:31:32.946Z,99627.09
2022-12-25T18:34:00.866Z,99622.25
2022-12-25T18:36:29.959Z,99614.28
2022-12-25T18:38:59.788Z,99611.13
2022-12-25T18:41:30.245Z,99600.28
2022-12-25T18:43:59.656Z,99609.81
2022-12-25T18:46:28.313Z,99619.31
2022-12-25T18:48:56.278Z,99607.41
2022-12-25T18:51:23.785Z,99607.03
2022-12-25T18:53:51.884Z,99606.22
2022-12-25T18:56:20.865Z,99610.72
2022-12-25T18:58:48.760Z,99602.63
2022-12-25T19:01:18.722Z,99592.44
2022-12-25T19:03:48.765Z,99595.47
2022-12-25T19:06:20.394Z,99596.72
2022-12-25T19:08:48.239Z,99582.78
2022-12-25T19:11:16.137Z,99588.56
2022-12-25T19:13:45.436Z,99591.03
2022-12-25T19:16:12.978Z,99587.94
2022-12-25T19:18:40.989Z,99575.97
2022-12-25T19:21:10.095Z,99576.56
2022-12-25T19:23:38.358Z,99570.97
2022-12-25T19:26:06.935Z,99573.56
2022-12-25T19:28:35.127Z,99573.34
2022-12-25T19:31:07.286Z,99564.22
2022-12-25T19:33:36.185Z,99561.00
2022-12-25T19:36:05.121Z,99557.09
2022-12-25T19:38:32.885Z,99558.00
2022-12-25T19:41:03.323Z,99567.34
2022-12-25T19:43:32.471Z,99559.28
2022-12-25T19:46:01.360Z,99554.47
2022-12-25T19:48:30.989Z,99552.38
2022-12-25T19:50:58.924Z,99559.22
2022-12-25T19:53:27.081Z,99558.34
2022-12-25T19:55:55.443Z,99563.13
2022-12-25T19:58:24.341Z,99557.91
2022-12-25T20:01:02.720Z,99555.69
2022-12-25T20:03:31.800Z,99562.00
2022-12-25T20:05:59.406Z,99557.53
2022-12-25T20:08:27.170Z,99555.00
2022-12-25T20:10:54.931Z,99546.72
2022-12-25T20:13:22.920Z,99554.31
2022-12-25T20:15:50.772Z,99533.94
2022-12-25T20:18:18.655Z,99528.59
2022-12-25T20:20:47.506Z,99528.41
2022-12-25T20:23:14.984Z,99523.09
2022-12-25T20:25:42.706Z,99531.50
2022-12-25T20:28:10.408Z,99521.66
2022-12-25T20:30:40.355Z,99523.88
2022-12-25T20:33:08.150Z,99526.81
2022-12-25T20:35:35.732Z,99526.38
2022-12-25T20:38:04.547Z,99520.41
2022-12-25T20:40:46.766Z,99529.84
2022-12-25T20:43:20.260Z,99526.56
2022-12-25T20:45:51.372Z,99515.88
2022-12-25T20:48:18.971Z,99523.34
2022-12-25T20:50:47.549Z,99521.19
2022-12-25T20:53:16.909Z,99507.28
2022-12-25T20:55:45.782Z,99513.06
2022-12-25T20:58:13.853Z,99513.75
2022-12-25T21:00:43.852Z,99508.06
2022-12-25T21:03:12.036Z,99512.88
2022-12-25T21:05:49.710Z,99512.72
2022-12-25T21:08:19.240Z,99510.19
2022-12-25T21:10:50.474Z,99511.69
2022-12-25T21:13:18.249Z,99516.31
2022-12-25T21:15:46.488Z,99511.13
2022-12-25T21:18:14.214Z,99525.69
2022-12-25T21:20:44.212Z,99524.38
2022-12-25T21:23:11.749Z,99525.06
2022-12-25T21:25:40.787Z,99522.31
2022-12-25T21:28:08.622Z,99527.72
2022-12-25T21:30:36.639Z,99519.91
2022-12-25T21:33:22.319Z,99522.38
2022-12-25T21:35:50.448Z,99511.69
2022-12-25T21:38:18.119Z,99515.91
2022-12-25T21:40:46.927Z,99516.13
2022-12-25T21:43:15.085Z,99523.44
2022-12-25T21:45:42.640Z,99523.44
2022-12-25T21:48:10.215Z,99530.56
2022-12-25T21:50:55.994Z,99530.13
2022-12-25T21:53:23.779Z,99519.03
2022-12-25T21:56:00.645Z,99518.91
2022-12-25T21:58:28.359Z,99531.75
2022-12-25T22:00:56.208Z,99524.53
2022-12-25T22:03:25.110Z,99514.41
2022-12-25T22:06:10.252Z,99524.75
2022-12-25T22:08:37.772Z,99524.88
2022-12-25T22:11:26.780Z,99519.34
2022-12-25T22:14:12.298Z,99510.22
2022-12-25T22:16:57.155Z,99521.88
2022-12-25T22:19:42.581Z,99515.41
2022-12-25T22:22:10.473Z,99512.91
2022-12-25T22:24:38.346Z,99511.16
2022-12-25T22:27:07.306Z,99512.84
2022-12-25T22:29:35.016Z,99503.16
2022-12-25T22:32:02.548Z,99495.78
2022-12-25T22:34:30.247Z,99494.75
2022-12-25T22:36:58.750Z,99484.97
2022-12-25T22:39:26.363Z,99497.66
2022-12-25T22:41:54.764Z,99502.06
2022-12-25T22:44:24.273Z,99500.47
2022-12-25T22:46:52.365Z,99505.91
2022-12-25T22:49:20.650Z,99505.38
2022-12-25T22:51:50.996Z,99498.94
2022-12-25T22:54:19.928Z,99504.03
2022-12-25T22:56:49.687Z,99503.47
2022-12-25T22:59:20.136Z,99491.75
2022-12-25T23:01:49.711Z,99496.91
2022-12-25T23:04:18.427Z,99500.09
2022-12-25T23:06:46.584Z,99514.06
2022-12-25T23:09:22.249Z,99521.03
2022-12-25T23:11:52.509Z,99514.47
2022-12-25T23:14:38.144Z,99521.94
2022-12-25T23:17:28.486Z,99529.97
2022-12-25T23:20:14.777Z,99519.00
2022-12-25T23:23:00.593Z,99510.91
2022-12-25T23:25:46.343Z,99502.78
2022-12-25T23:28:14.569Z,99513.63
2022-12-25T23:30:41.390Z,99514.41
2022-12-25T23:33:11.065Z,99513.56
2022-12-25T23:35:38.953Z,99512.38
2022-12-25T23:38:06.990Z,99504.34
2022-12-25T23:40:34.932Z,99499.19
2022-12-25T23:43:02.513Z,99495.38
2022-12-25T23:45:30.242Z,99503.31
2022-12-25T23:47:57.837Z,99496.25
2022-12-25T23:50:26.626Z,99486.41
2022-12-25T23:52:55.311Z,99504.19
2022-12-25T23:55:22.793Z,99497.94
2022-12-25T23:57:50.568Z,99494.25
